Time;durP1;ratioP1;P1;durP2;ratioP2;P2;SDS_P1;SDS_P2;PMS_P1;PMS_P2;Temp;Humidity;BMP_temperature;BMP_pressure;BME280_temperature;BME280_humidity;BME280_pressure;Samples;Min_cycle;Max_cycle;Signal;HPM_P1;HPM_P2
2022/02/25 00:00:03;;;;;;;13.53;2.60;;;;;;;-145.14;100.00;70583.66;4999514;28;20625;-82
2022/02/25 00:02:29;;;;;;;9.67;2.53;;;;;;;-145.14;100.00;70583.66;5000995;28;20185;-80
2022/02/25 00:04:54;;;;;;;12.37;2.33;;;;;;;-145.14;100.00;70583.66;4999469;28;20466;-81
2022/02/25 00:07:20;;;;;;;10.97;2.90;;;;;;;-145.14;100.00;70583.66;5001014;28;20204;-81
2022/02/25 00:09:45;;;;;;;12.07;2.83;;;;;;;-145.14;100.00;70583.66;5003030;28;20829;-81
2022/02/25 00:12:11;;;;;;;12.07;2.97;;;;;;;-145.14;100.00;70583.66;5000026;28;20189;-81
2022/02/25 00:14:36;;;;;;;12.20;2.87;;;;;;;-145.14;100.00;70583.66;4999087;28;20185;-82
2022/02/25 00:17:02;;;;;;;14.37;3.03;;;;;;;-145.14;100.00;70583.66;4998919;28;20220;-81
2022/02/25 00:19:27;;;;;;;19.77;3.27;;;;;;;-145.14;100.00;70583.66;4999782;28;20177;-80
2022/02/25 00:21:52;;;;;;;19.43;4.07;;;;;;;-145.14;100.00;70583.66;5000732;28;20251;-81
2022/02/25 00:24:18;;;;;;;7.37;2.03;;;;;;;-145.14;100.00;70583.66;4999232;28;20701;-81
2022/02/25 00:26:43;;;;;;;10.67;2.27;;;;;;;-145.14;100.00;70583.66;4999063;28;20211;-80
2022/02/25 00:29:09;;;;;;;11.90;2.57;;;;;;;-145.14;100.00;70583.66;5001640;28;20190;-82
2022/02/25 00:31:35;;;;;;;8.87;2.07;;;;;;;-145.14;100.00;70583.66;4998632;28;20189;-82
2022/02/25 00:34:00;;;;;;;13.97;2.10;;;;;;;-145.14;100.00;70583.66;5010505;28;20217;-81
2022/02/25 00:36:26;;;;;;;10.53;2.70;;;;;;;-145.14;100.00;70583.66;5000065;28;20285;-82
2022/02/25 00:38:52;;;;;;;14.47;2.60;;;;;;;-145.14;100.00;70583.66;4998619;28;20647;-82
2022/02/25 00:41:17;;;;;;;13.90;3.40;;;;;;;-145.14;100.00;70583.66;5000828;28;20269;-82
2022/02/25 00:43:43;;;;;;;9.63;3.67;;;;;;;-145.14;100.00;70583.66;5000902;28;20190;-82
2022/02/25 00:46:08;;;;;;;7.50;2.03;;;;;;;-145.14;100.00;70583.66;4998806;28;20185;-81
2022/02/25 00:48:34;;;;;;;12.90;2.77;;;;;;;-145.14;100.00;70583.66;4998603;28;20654;-83
2022/02/25 00:50:59;;;;;;;14.33;2.70;;;;;;;-145.14;100.00;70583.66;5003730;28;20216;-82
2022/02/25 00:53:25;;;;;;;11.83;2.80;;;;;;;-145.14;100.00;70583.66;5004509;28;21347;-82
2022/02/25 00:55:50;;;;;;;16.13;3.40;;;;;;;-145.14;100.00;70583.66;5002614;28;20196;-83
2022/02/25 00:58:16;;;;;;;10.40;3.43;;;;;;;-145.14;100.00;70583.66;5004310;28;20670;-82
2022/02/25 01:00:41;;;;;;;12.90;3.20;;;;;;;-145.14;100.00;70583.66;4997610;28;20199;-82
2022/02/25 01:03:07;;;;;;;9.60;2.33;;;;;;;-145.14;100.00;70583.66;5000710;28;20192;-82
2022/02/25 01:05:33;;;;;;;15.80;3.30;;;;;;;-145.14;100.00;70583.66;5004102;28;20181;-82
2022/02/25 01:08:04;;;;;;;9.57;2.63;;;;;;;-145.14;100.00;70583.66;5002258;28;20582;-81
2022/02/25 01:10:30;;;;;;;10.67;2.37;;;;;;;-145.14;100.00;70583.66;5004221;28;20967;-83
2022/02/25 01:12:56;;;;;;;14.53;3.10;;;;;;;-145.14;100.00;70583.66;5005920;28;20444;-82
2022/02/25 01:15:21;;;;;;;11.27;3.10;;;;;;;-145.14;100.00;70583.66;5001361;28;20189;-79
2022/02/25 01:17:47;;;;;;;14.37;4.03;;;;;;;-145.14;100.00;70583.66;5006979;28;20722;-79
2022/02/25 01:20:12;;;;;;;18.20;3.60;;;;;;;-145.14;100.00;70583.66;5002865;28;20412;-81
2022/02/25 01:22:38;;;;;;;14.33;3.37;;;;;;;-145.14;100.00;70583.66;5019831;28;20196;-80
2022/02/25 01:25:04;;;;;;;13.20;3.00;;;;;;;-145.14;100.00;70583.66;5005236;28;20185;-81
2022/02/25 01:27:30;;;;;;;13.10;3.07;;;;;;;-145.14;100.00;70583.66;5002784;28;20651;-80
2022/02/25 01:29:56;;;;;;;16.57;3.33;;;;;;;-145.14;100.00;70583.66;5001776;28;20507;-79
2022/02/25 01:32:22;;;;;;;17.17;3.47;;;;;;;-145.14;100.00;70583.66;5000598;28;20448;-81
2022/02/25 01:34:49;;;;;;;13.53;3.57;;;;;;;-145.14;100.00;70583.66;5002812;28;20505;-81
2022/02/25 01:37:14;;;;;;;23.23;3.53;;;;;;;-145.14;100.00;70583.66;4999710;28;20240;-80
2022/02/25 01:39:39;;;;;;;13.57;3.13;;;;;;;-145.14;100.00;70583.66;5003239;28;20458;-78
2022/02/25 01:42:06;;;;;;;10.40;2.20;;;;;;;-145.14;100.00;70583.66;5003346;28;20177;-79
2022/02/25 01:44:32;;;;;;;11.33;3.53;;;;;;;-145.14;100.00;70583.66;5002939;28;20193;-79
2022/02/25 01:47:00;;;;;;;12.00;2.87;;;;;;;-145.14;100.00;70583.66;5002281;28;20464;-81
2022/02/25 01:49:28;;;;;;;14.10;3.10;;;;;;;-145.14;100.00;70583.66;5001455;28;20212;-81
2022/02/25 01:51:58;;;;;;;12.37;2.60;;;;;;;-145.14;100.00;70583.66;5000541;28;20447;-82
2022/02/25 01:54:25;;;;;;;12.83;2.47;;;;;;;-145.14;100.00;70583.66;5003380;28;21093;-80
2022/02/25 01:56:52;;;;;;;13.20;2.77;;;;;;;-145.14;100.00;70583.66;5000646;28;20799;-83
2022/02/25 01:59:18;;;;;;;7.07;2.00;;;;;;;-145.14;100.00;70583.66;5002732;28;20577;-81
2022/02/25 02:01:44;;;;;;;8.40;2.40;;;;;;;-145.14;100.00;70583.66;4996565;28;21094;-81
2022/02/25 02:04:10;;;;;;;9.60;2.30;;;;;;;-145.14;100.00;70583.66;5002594;28;20443;-81
2022/02/25 02:06:36;;;;;;;8.90;2.47;;;;;;;-145.14;100.00;70583.66;5000544;28;20224;-80
2022/02/25 02:09:06;;;;;;;13.60;2.50;;;;;;;-145.14;100.00;70583.66;4995580;28;20940;-80
2022/02/25 02:11:33;;;;;;;17.33;3.40;;;;;;;-145.14;100.00;70583.66;5000090;28;20467;-79
2022/02/25 02:14:00;;;;;;;15.97;3.20;;;;;;;-145.14;100.00;70583.66;4998107;28;20436;-80
2022/02/25 02:16:27;;;;;;;11.40;2.37;;;;;;;-145.14;100.00;70583.66;4998118;28;20439;-79
2022/02/25 02:18:53;;;;;;;16.53;2.60;;;;;;;-145.14;100.00;70583.66;4999236;28;20554;-78
2022/02/25 02:21:23;;;;;;;17.30;2.23;;;;;;;-145.14;100.00;70583.66;5000338;28;20538;-80
2022/02/25 02:23:49;;;;;;;10.80;2.70;;;;;;;-145.14;100.00;70583.66;4998126;28;20784;-80
2022/02/25 02:26:14;;;;;;;7.53;2.80;;;;;;;-145.14;100.00;70583.66;4996567;28;20506;-80
2022/02/25 02:28:39;;;;;;;12.67;2.13;;;;;;;-145.14;100.00;70583.66;4998992;28;20209;-79
2022/02/25 02:31:05;;;;;;;16.93;2.70;;;;;;;-145.14;100.00;70583.66;4992707;28;20207;-79
2022/02/25 02:33:30;;;;;;;14.07;2.87;;;;;;;-145.14;100.00;70583.66;4999670;28;20189;-77
2022/02/25 02:35:56;;;;;;;13.43;3.80;;;;;;;-145.14;100.00;70583.66;4999086;28;20193;-79
2022/02/25 02:38:21;;;;;;;11.60;2.63;;;;;;;-145.14;100.00;70583.66;5010103;23;20247;-69
2022/02/25 02:40:47;;;;;;;16.10;3.40;;;;;;;-145.14;100.00;70583.66;4993364;28;20194;-69
2022/02/25 02:43:13;;;;;;;13.67;2.80;;;;;;;-145.14;100.00;70583.66;4995874;28;20193;-70
2022/02/25 02:45:39;;;;;;;14.80;2.70;;;;;;;-145.14;100.00;70583.66;4998318;28;20208;-69
2022/02/25 02:48:04;;;;;;;15.70;3.10;;;;;;;-145.14;100.00;70583.66;4999363;28;20459;-70
2022/02/25 02:50:30;;;;;;;12.20;2.20;;;;;;;-145.14;100.00;70583.66;4998561;28;20467;-69
2022/02/25 02:52:56;;;;;;;15.13;3.30;;;;;;;-145.14;100.00;70583.66;5000003;28;20185;-69
2022/02/25 02:55:22;;;;;;;11.10;2.63;;;;;;;-145.14;100.00;70583.66;4998347;28;20188;-69
2022/02/25 02:57:49;;;;;;;13.90;2.90;;;;;;;-145.14;100.00;70583.66;4991606;28;22444;-70
2022/02/25 03:00:15;;;;;;;12.43;2.93;;;;;;;-145.14;100.00;70583.66;4999301;28;21002;-70
2022/02/25 03:02:40;;;;;;;10.57;2.00;;;;;;;-145.14;100.00;70583.66;5002113;28;20440;-70
2022/02/25 03:05:07;;;;;;;15.80;2.90;;;;;;;-145.14;100.00;70583.66;5000140;28;20438;-70
2022/02/25 03:07:32;;;;;;;16.37;3.23;;;;;;;-145.14;100.00;70583.66;5002323;28;20228;-69
2022/02/25 03:09:58;;;;;;;9.37;2.30;;;;;;;-145.14;100.00;70583.66;5004112;28;21090;-70
2022/02/25 03:12:24;;;;;;;15.47;2.77;;;;;;;-145.14;100.00;70583.66;5001630;28;20248;-70
2022/02/25 03:14:49;;;;;;;11.37;2.97;;;;;;;-145.14;100.00;70583.66;4999529;28;20196;-70
2022/02/25 03:17:15;;;;;;;9.30;2.87;;;;;;;-145.14;100.00;70583.66;5004016;28;20459;-70
2022/02/25 03:19:41;;;;;;;13.27;3.27;;;;;;;-145.14;100.00;70583.66;5004970;28;20268;-70
2022/02/25 03:22:07;;;;;;;16.97;2.40;;;;;;;-145.14;100.00;70583.66;5001925;28;20208;-70
2022/02/25 03:24:32;;;;;;;17.90;3.20;;;;;;;-145.14;100.00;70583.66;5003179;28;20470;-70
2022/02/25 03:26:58;;;;;;;11.40;1.93;;;;;;;-145.14;100.00;70583.66;5002507;28;20219;-70
2022/02/25 03:29:23;;;;;;;14.70;3.00;;;;;;;-145.14;100.00;70583.66;5003805;28;20692;-70
2022/02/25 03:31:49;;;;;;;11.83;2.47;;;;;;;-145.14;100.00;70583.66;5000514;28;22195;-70
2022/02/25 03:34:14;;;;;;;18.17;2.80;;;;;;;-145.14;100.00;70583.66;5003691;28;20634;-70
2022/02/25 03:36:40;;;;;;;12.50;2.90;;;;;;;-145.14;100.00;70583.66;5002927;28;20189;-70
2022/02/25 03:39:06;;;;;;;18.30;3.30;;;;;;;-145.14;100.00;70583.66;5001451;28;20286;-70
2022/02/25 03:41:32;;;;;;;9.60;2.40;;;;;;;-145.14;100.00;70583.66;5002521;28;20191;-70
2022/02/25 03:43:58;;;;;;;12.17;2.80;;;;;;;-145.14;100.00;70583.66;5002425;28;20436;-70
2022/02/25 03:46:23;;;;;;;12.77;2.60;;;;;;;-145.14;100.00;70583.66;4997388;28;22526;-70
2022/02/25 03:48:50;;;;;;;14.87;3.37;;;;;;;-145.14;100.00;70583.66;5001705;28;20220;-70
2022/02/25 03:51:16;;;;;;;12.50;2.60;;;;;;;-145.14;100.00;70583.66;5002489;28;20193;-70
2022/02/25 03:53:42;;;;;;;12.93;2.80;;;;;;;-145.14;100.00;70583.66;5001989;28;20443;-70
2022/02/25 03:56:07;;;;;;;16.30;2.97;;;;;;;-145.14;100.00;70583.66;5002989;28;20446;-70
2022/02/25 03:58:33;;;;;;;14.10;2.90;;;;;;;-145.14;100.00;70583.66;5003930;28;20216;-70
2022/02/25 04:00:58;;;;;;;9.27;2.30;;;;;;;-145.14;100.00;70583.66;5000665;28;20593;-70
2022/02/25 04:03:24;;;;;;;15.67;2.80;;;;;;;-145.14;100.00;70583.66;5001437;28;20243;-70
2022/02/25 04:05:49;;;;;;;18.30;3.30;;;;;;;-145.14;100.00;70583.66;4996569;28;20185;-69
2022/02/25 04:08:15;;;;;;;14.17;2.27;;;;;;;-145.14;100.00;70583.66;4999992;28;20808;-69
2022/02/25 04:10:40;;;;;;;11.40;2.40;;;;;;;-145.14;100.00;70583.66;4999281;28;20235;-70
2022/02/25 04:13:05;;;;;;;9.93;2.93;;;;;;;-145.14;100.00;70583.66;5000152;28;20216;-70
2022/02/25 04:15:32;;;;;;;13.77;2.40;;;;;;;-145.14;100.00;70583.66;5000424;28;20212;-70
2022/02/25 04:17:57;;;;;;;13.83;2.30;;;;;;;-145.14;100.00;70583.66;5001760;28;20205;-70
2022/02/25 04:20:23;;;;;;;10.20;2.43;;;;;;;-145.14;100.00;70583.66;4999215;28;21127;-70
2022/02/25 04:22:48;;;;;;;14.17;2.80;;;;;;;-145.14;100.00;70583.66;4998786;28;20672;-70
2022/02/25 04:25:14;;;;;;;16.23;3.20;;;;;;;-145.14;100.00;70583.66;5003883;28;20188;-70
2022/02/25 04:27:40;;;;;;;10.77;2.33;;;;;;;-145.14;100.00;70583.66;5004996;28;20212;-70
2022/02/25 04:30:06;;;;;;;30.57;3.80;;;;;;;-145.14;100.00;70583.66;5006206;28;20267;-70
2022/02/25 04:32:31;;;;;;;13.93;2.90;;;;;;;-145.14;100.00;70583.66;5004329;28;20203;-70
2022/02/25 04:34:57;;;;;;;11.30;2.80;;;;;;;-145.14;100.00;70583.66;5003958;28;20989;-70
2022/02/25 04:37:22;;;;;;;8.00;2.50;;;;;;;-145.14;100.00;70583.66;5003203;28;20217;-70
2022/02/25 04:39:48;;;;;;;12.60;2.30;;;;;;;-145.14;100.00;70583.66;5003295;28;20193;-70
2022/02/25 04:42:13;;;;;;;14.93;2.67;;;;;;;-145.14;100.00;70583.66;5006657;28;20186;-70
2022/02/25 04:44:38;;;;;;;10.90;3.13;;;;;;;-145.14;100.00;70583.66;5004695;28;20192;-70
2022/02/25 04:47:04;;;;;;;19.23;3.47;;;;;;;-145.14;100.00;70583.66;5003401;28;20200;-69
2022/02/25 04:49:30;;;;;;;13.70;3.07;;;;;;;-145.14;100.00;70583.66;5006051;28;20197;-70
2022/02/25 04:51:55;;;;;;;12.77;2.53;;;;;;;-145.14;100.00;70583.66;5005695;28;20185;-70
2022/02/25 04:54:21;;;;;;;15.80;2.67;;;;;;;-145.14;100.00;70583.66;5005922;28;20593;-69
2022/02/25 04:56:46;;;;;;;12.60;2.80;;;;;;;-145.14;100.00;70583.66;5002922;28;20189;-70
2022/02/25 04:59:12;;;;;;;12.23;3.03;;;;;;;-145.14;100.00;70583.66;5005039;28;20211;-70
2022/02/25 05:01:38;;;;;;;12.97;2.67;;;;;;;-145.14;100.00;70583.66;5004129;28;20893;-70
2022/02/25 05:04:04;;;;;;;16.80;4.07;;;;;;;-145.14;100.00;70583.66;5004971;28;20189;-70
2022/02/25 05:06:30;;;;;;;14.77;3.17;;;;;;;-145.14;100.00;70583.66;5000023;28;20658;-69
2022/02/25 05:08:55;;;;;;;11.17;2.73;;;;;;;-145.14;100.00;70583.66;5002003;28;20472;-69
2022/02/25 05:11:21;;;;;;;18.00;2.70;;;;;;;-145.14;100.00;70583.66;5002853;28;20666;-70
2022/02/25 05:13:46;;;;;;;13.20;2.40;;;;;;;-145.14;100.00;70583.66;5001881;28;20191;-70
2022/02/25 05:21:40;;;;;;;14.90;2.43;;;;;;;-145.14;100.00;70583.66;5000661;28;20435;-70
2022/02/25 05:24:05;;;;;;;10.73;2.60;;;;;;;-145.14;100.00;70583.66;5004534;28;20443;-69
2022/02/25 05:26:31;;;;;;;16.40;2.83;;;;;;;-145.14;100.00;70583.66;5003960;28;20682;-70
2022/02/25 05:28:57;;;;;;;10.63;2.57;;;;;;;-145.14;100.00;70583.66;5002147;28;20312;-70
2022/02/25 05:31:22;;;;;;;16.10;3.27;;;;;;;-145.14;100.00;70583.66;4994316;28;20209;-70
2022/02/25 05:33:48;;;;;;;14.63;3.63;;;;;;;-145.14;100.00;70583.66;4999252;28;20277;-70
2022/02/25 05:36:14;;;;;;;12.07;3.07;;;;;;;-145.14;100.00;70583.66;5003238;28;20216;-70
2022/02/25 05:38:40;;;;;;;17.93;4.03;;;;;;;-145.14;100.00;70583.66;4999485;28;20213;-70
2022/02/25 05:41:06;;;;;;;17.97;3.63;;;;;;;-145.14;100.00;70583.66;4997932;28;20541;-70
2022/02/25 05:43:31;;;;;;;12.53;3.30;;;;;;;-145.14;100.00;70583.66;4999244;28;20860;-70
2022/02/25 05:45:57;;;;;;;19.43;2.73;;;;;;;-145.14;100.00;70583.66;4994046;28;20199;-71
2022/02/25 05:48:23;;;;;;;12.43;2.80;;;;;;;-145.14;100.00;70583.66;4994498;28;20211;-70
2022/02/25 05:50:48;;;;;;;14.60;3.20;;;;;;;-145.14;100.00;70583.66;4993233;28;20583;-71
2022/02/25 05:53:14;;;;;;;9.33;2.43;;;;;;;-145.14;100.00;70583.66;4993836;28;21708;-70
2022/02/25 05:55:40;;;;;;;14.53;3.10;;;;;;;-145.14;100.00;70583.66;4990358;28;20189;-71
2022/02/25 05:58:05;;;;;;;14.73;3.10;;;;;;;-145.14;100.00;70583.66;4996306;28;20574;-70
2022/02/25 06:00:31;;;;;;;8.23;2.30;;;;;;;-145.14;100.00;70583.66;4991402;28;20186;-71
2022/02/25 06:02:56;;;;;;;17.00;3.00;;;;;;;-145.14;100.00;70583.66;4995308;28;20201;-70
2022/02/25 06:05:22;;;;;;;14.40;2.93;;;;;;;-145.14;100.00;70583.66;4993841;28;20185;-71
2022/02/25 06:07:48;;;;;;;13.40;2.90;;;;;;;-145.14;100.00;70583.66;4997291;28;20802;-71
2022/02/25 06:10:14;;;;;;;22.10;3.40;;;;;;;-145.14;100.00;70583.66;4998680;28;20259;-70
2022/02/25 06:12:40;;;;;;;8.80;2.50;;;;;;;-145.14;100.00;70583.66;4996470;28;20444;-70
2022/02/25 06:15:07;;;;;;;14.40;2.83;;;;;;;-145.14;100.00;70583.66;4994064;28;20576;-70
2022/02/25 06:17:33;;;;;;;11.07;3.03;;;;;;;-145.14;100.00;70583.66;4993222;28;20506;-70
2022/02/25 06:19:58;;;;;;;9.83;2.43;;;;;;;-145.14;100.00;70583.66;4992721;28;21052;-70
2022/02/25 06:22:23;;;;;;;11.90;2.47;;;;;;;-145.14;100.00;70583.66;4995125;28;20275;-70
2022/02/25 06:24:49;;;;;;;13.60;2.70;;;;;;;-145.14;100.00;70583.66;4994788;28;20189;-70
2022/02/25 06:27:14;;;;;;;16.30;2.70;;;;;;;-145.14;100.00;70583.66;4991961;28;20215;-71
2022/02/25 06:29:40;;;;;;;15.40;3.87;;;;;;;-145.14;100.00;70583.66;4994867;28;20239;-70
2022/02/25 06:32:06;;;;;;;11.87;2.57;;;;;;;-145.14;100.00;70583.66;4995809;28;20251;-70
2022/02/25 06:34:31;;;;;;;21.20;2.97;;;;;;;-145.14;100.00;70583.66;4994709;28;20189;-71
2022/02/25 06:36:56;;;;;;;18.97;3.27;;;;;;;-145.14;100.00;70583.66;4996562;28;20185;-70
2022/02/25 06:39:22;;;;;;;12.07;2.37;;;;;;;-145.14;100.00;70583.66;4997057;28;20596;-71
2022/02/25 06:41:47;;;;;;;16.57;3.60;;;;;;;-145.14;100.00;70583.66;4987310;28;20569;-71
2022/02/25 06:44:13;;;;;;;10.83;3.23;;;;;;;-145.14;100.00;70583.66;4998437;28;20276;-71
2022/02/25 06:46:38;;;;;;;14.13;2.63;;;;;;;-145.14;100.00;70583.66;4993050;28;20269;-70
2022/02/25 06:49:04;;;;;;;15.27;2.90;;;;;;;-145.14;100.00;70583.66;4997963;28;20264;-74
2022/02/25 06:51:31;;;;;;;13.10;2.53;;;;;;;-145.14;100.00;70583.66;4988026;28;20197;-70
2022/02/25 06:53:57;;;;;;;8.60;2.53;;;;;;;-145.14;100.00;70583.66;4997996;28;20456;-71
2022/02/25 06:56:22;;;;;;;8.37;2.00;;;;;;;-145.14;100.00;70583.66;4992988;28;20494;-70
2022/02/25 06:58:48;;;;;;;9.87;2.23;;;;;;;-145.14;100.00;70583.66;4995247;28;20999;-71
2022/02/25 07:01:13;;;;;;;13.80;2.50;;;;;;;-145.14;100.00;70583.66;4995509;28;20618;-71
2022/02/25 07:03:39;;;;;;;10.77;2.97;;;;;;;-145.14;100.00;70583.66;4996310;28;20196;-71
2022/02/25 07:06:04;;;;;;;6.30;2.10;;;;;;;-145.14;100.00;70583.66;4997098;28;20657;-71
2022/02/25 07:08:30;;;;;;;8.87;1.83;;;;;;;-145.14;100.00;70583.66;4995673;28;20212;-71
2022/02/25 07:10:56;;;;;;;6.67;2.10;;;;;;;-145.14;100.00;70583.66;4988119;28;20303;-71
2022/02/25 07:13:22;;;;;;;9.63;2.20;;;;;;;-145.14;100.00;70583.66;4994876;28;20239;-70
2022/02/25 07:15:47;;;;;;;10.60;2.40;;;;;;;-145.14;100.00;70583.66;4994306;28;20215;-71
2022/02/25 07:18:15;;;;;;;11.97;2.70;;;;;;;-145.14;100.00;70583.66;4994986;28;20204;-70
2022/02/25 07:20:44;;;;;;;14.43;3.37;;;;;;;-145.14;100.00;70583.66;4997147;28;20193;-70
2022/02/25 07:23:10;;;;;;;11.80;2.30;;;;;;;-145.14;100.00;70583.66;4995063;28;20498;-71
2022/02/25 07:25:36;;;;;;;13.27;2.97;;;;;;;-145.14;100.00;70583.66;4991026;28;20444;-71
2022/02/25 07:28:02;;;;;;;15.00;3.00;;;;;;;-145.14;100.00;70583.66;4994118;28;20212;-71
2022/02/25 07:30:28;;;;;;;11.20;2.30;;;;;;;-145.14;100.00;70583.66;4994312;28;20475;-71
2022/02/25 07:32:53;;;;;;;10.37;2.90;;;;;;;-145.14;100.00;70583.66;4989582;28;20439;-71
2022/02/25 07:35:19;;;;;;;12.57;2.40;;;;;;;-145.14;100.00;70583.66;4992227;28;20185;-71
2022/02/25 07:37:44;;;;;;;11.77;3.53;;;;;;;-145.14;100.00;70583.66;4991760;28;20299;-71
2022/02/25 07:40:12;;;;;;;15.43;2.90;;;;;;;-145.14;100.00;70583.66;4994120;28;20185;-71
2022/02/25 07:42:38;;;;;;;13.00;3.03;;;;;;;-145.14;100.00;70583.66;4996477;28;20186;-72
2022/02/25 07:45:04;;;;;;;16.13;3.10;;;;;;;-145.14;100.00;70583.66;4996155;28;20448;-70
2022/02/25 07:47:30;;;;;;;6.27;2.70;;;;;;;-145.14;100.00;70583.66;4996964;28;20468;-71
2022/02/25 07:49:56;;;;;;;10.43;2.53;;;;;;;-145.14;100.00;70583.66;4995701;28;20205;-71
2022/02/25 07:52:23;;;;;;;19.67;3.87;;;;;;;-145.14;100.00;70583.66;4993735;28;20793;-71
2022/02/25 07:54:49;;;;;;;9.93;2.70;;;;;;;-145.14;100.00;70583.66;4997305;28;20510;-70
2022/02/25 07:57:14;;;;;;;15.60;3.00;;;;;;;-145.14;100.00;70583.66;4985784;28;20460;-70
2022/02/25 07:59:41;;;;;;;10.70;2.43;;;;;;;-145.14;100.00;70583.66;4997789;28;20543;-71
2022/02/25 08:02:07;;;;;;;13.87;2.50;;;;;;;-145.14;100.00;70583.66;4981396;28;20197;-70
2022/02/25 08:04:32;;;;;;;13.73;3.10;;;;;;;-145.14;100.00;70583.66;4992406;28;20972;-71
2022/02/25 08:06:59;;;;;;;16.23;3.60;;;;;;;-145.14;100.00;70583.66;4995277;28;21197;-71
2022/02/25 08:09:24;;;;;;;19.13;5.03;;;;;;;-145.14;100.00;70583.66;4990098;28;20189;-71
2022/02/25 08:11:49;;;;;;;13.60;3.50;;;;;;;-145.14;100.00;70583.66;4992721;28;20566;-71
2022/02/25 08:14:15;;;;;;;12.77;2.80;;;;;;;-145.14;100.00;70583.66;4986703;28;20642;-70
2022/02/25 08:16:40;;;;;;;21.60;4.13;;;;;;;-145.14;100.00;70583.66;4991102;28;20673;-71
2022/02/25 08:19:07;;;;;;;25.13;4.00;;;;;;;-145.14;100.00;70583.66;4992624;28;20212;-71
2022/02/25 08:21:34;;;;;;;20.63;3.70;;;;;;;-145.14;100.00;70583.66;4988381;28;20240;-71
2022/02/25 08:23:59;;;;;;;15.83;3.13;;;;;;;-145.14;100.00;70583.66;5005288;28;21410;-71
2022/02/25 08:26:25;;;;;;;13.43;3.30;;;;;;;-145.14;100.00;70583.66;4992144;28;20443;-71
2022/02/25 08:28:52;;;;;;;17.73;3.20;;;;;;;-145.14;100.00;70583.66;4992653;28;20221;-70
2022/02/25 08:31:18;;;;;;;14.03;3.10;;;;;;;-145.14;100.00;70583.66;5001100;28;20201;-71
2022/02/25 08:33:43;;;;;;;12.80;3.50;;;;;;;-145.14;100.00;70583.66;4991379;28;20451;-71
2022/02/25 08:36:09;;;;;;;20.33;3.40;;;;;;;-145.14;100.00;70583.66;4992446;28;20432;-71
2022/02/25 08:38:34;;;;;;;14.27;3.57;;;;;;;-145.14;100.00;70583.66;5015591;23;20324;-82
2022/02/25 08:41:01;;;;;;;11.83;2.73;;;;;;;-145.14;100.00;70583.66;5007352;28;20278;-80
2022/02/25 08:43:26;;;;;;;17.83;2.90;;;;;;;-145.14;100.00;70583.66;4999338;28;20195;-81
2022/02/25 08:45:53;;;;;;;17.80;3.40;;;;;;;-145.14;100.00;70583.66;4994063;28;20448;-81
2022/02/25 08:48:19;;;;;;;15.47;3.93;;;;;;;-145.14;100.00;70583.66;4989780;28;20731;-81
2022/02/25 08:50:44;;;;;;;18.40;3.33;;;;;;;-145.14;100.00;70583.66;5007874;28;20471;-82
2022/02/25 08:53:10;;;;;;;15.73;3.53;;;;;;;-145.14;100.00;70583.66;4995888;28;20212;-83
2022/02/25 08:55:35;;;;;;;17.87;4.23;;;;;;;-145.14;100.00;70583.66;5016160;28;20192;-83
2022/02/25 08:58:01;;;;;;;13.40;2.40;;;;;;;-145.14;100.00;70583.66;5010046;28;20299;-82
2022/02/25 09:00:27;;;;;;;12.20;2.73;;;;;;;-145.14;100.00;70583.66;5013606;28;20232;-83
2022/02/25 09:02:54;;;;;;;10.57;2.73;;;;;;;-145.14;100.00;70583.66;5013368;28;20180;-83
2022/02/25 09:05:24;;;;;;;15.60;2.20;;;;;;;-145.14;100.00;70583.66;4991512;28;20490;-84
2022/02/25 09:07:51;;;;;;;11.00;2.67;;;;;;;-145.14;100.00;70583.66;5013749;28;20566;-84
2022/02/25 09:10:17;;;;;;;9.30;2.13;;;;;;;-145.14;100.00;70583.66;5000361;28;20576;-83
2022/02/25 09:12:44;;;;;;;20.33;3.70;;;;;;;-145.14;100.00;70583.66;5001815;28;20439;-83
2022/02/25 09:15:12;;;;;;;9.70;2.33;;;;;;;-145.14;100.00;70583.66;5014959;28;20439;-83
2022/02/25 09:17:39;;;;;;;18.50;2.97;;;;;;;-145.14;100.00;70583.66;5015601;28;20471;-83
2022/02/25 09:20:07;;;;;;;17.33;2.97;;;;;;;-145.14;100.00;70583.66;5018834;28;20486;-81
2022/02/25 09:22:33;;;;;;;10.13;2.40;;;;;;;-145.14;100.00;70583.66;5015750;28;20875;-81
2022/02/25 09:24:58;;;;;;;8.33;2.10;;;;;;;-145.14;100.00;70583.66;5011827;28;20578;-82
2022/02/25 09:27:24;;;;;;;9.47;2.20;;;;;;;-145.14;100.00;70583.66;5013530;28;20461;-82
2022/02/25 09:29:50;;;;;;;8.50;1.90;;;;;;;-145.14;100.00;70583.66;5016071;28;20296;-82
2022/02/25 09:32:15;;;;;;;9.10;1.83;;;;;;;-145.14;100.00;70583.66;5017702;28;20299;-84
2022/02/25 09:34:41;;;;;;;5.60;1.60;;;;;;;-145.14;100.00;70583.66;5015730;28;20935;-86
2022/02/25 09:37:06;;;;;;;8.70;2.47;;;;;;;-145.14;100.00;70583.66;5016447;28;20184;-85
2022/02/25 09:39:32;;;;;;;8.97;2.17;;;;;;;-145.14;100.00;70583.66;5015498;28;20224;-87
2022/02/25 09:41:58;;;;;;;9.00;2.40;;;;;;;-145.14;100.00;70583.66;5004387;28;20180;-85
2022/02/25 09:44:25;;;;;;;12.33;3.00;;;;;;;-145.14;100.00;70583.66;5013924;28;20440;-86
2022/02/25 09:46:51;;;;;;;6.20;1.80;;;;;;;-145.14;100.00;70583.66;5015610;28;20500;-88
2022/02/25 09:49:18;;;;;;;5.70;1.07;;;;;;;-145.14;100.00;70583.66;5000974;28;20462;-89
2022/02/25 09:51:46;;;;;;;6.10;1.60;;;;;;;-145.14;100.00;70583.66;4996417;28;20471;-89
2022/02/25 09:54:17;;;;;;;6.97;1.77;;;;;;;-145.14;100.00;70583.66;5012009;28;20443;-87
2022/02/25 09:56:46;;;;;;;6.80;1.70;;;;;;;-145.14;100.00;70583.66;5006751;28;20429;-84
2022/02/25 09:59:12;;;;;;;11.37;2.57;;;;;;;-145.14;100.00;70583.66;5012914;28;20557;-85
2022/02/25 10:01:38;;;;;;;7.30;2.23;;;;;;;-145.14;100.00;70583.66;4999935;28;20450;-82
2022/02/25 10:04:20;;;;;;;10.53;2.50;;;;;;;-145.14;100.00;70583.66;5012817;28;20442;-79
2022/02/25 10:06:46;;;;;;;12.13;2.27;;;;;;;-145.14;100.00;70583.66;5009126;28;20234;-80
2022/02/25 10:09:33;;;;;;;12.57;1.97;;;;;;;-145.14;100.00;70583.66;5013232;28;20510;-83
2022/02/25 10:12:06;;;;;;;19.23;2.73;;;;;;;-145.14;100.00;70583.66;5014860;28;20435;-82
2022/02/25 10:14:38;;;;;;;12.33;2.97;;;;;;;-145.14;100.00;70583.66;5014636;28;21136;-82
2022/02/25 10:17:08;;;;;;;11.73;2.63;;;;;;;-145.14;100.00;70583.66;5000584;28;20443;-80
2022/02/25 10:19:33;;;;;;;13.77;2.43;;;;;;;-145.14;100.00;70583.66;5012286;28;20485;-83
2022/02/25 10:22:33;;;;;;;13.30;2.40;;;;;;;-145.14;100.00;70583.66;5015950;28;20431;-82
2022/02/25 10:25:00;;;;;;;11.23;3.00;;;;;;;-145.14;100.00;70583.66;4964638;28;20201;-83
2022/02/25 10:27:31;;;;;;;7.73;1.80;;;;;;;-145.14;100.00;70583.66;5010755;28;20497;-80
2022/02/25 10:30:00;;;;;;;9.47;1.70;;;;;;;-145.14;100.00;70583.66;5004714;28;20526;-81
2022/02/25 10:32:27;;;;;;;9.50;2.00;;;;;;;-145.14;100.00;70583.66;5010998;28;21332;-80
2022/02/25 10:34:52;;;;;;;11.43;2.43;;;;;;;-145.14;100.00;70583.66;5011766;28;20423;-81
2022/02/25 10:37:18;;;;;;;13.15;2.55;;;;;;;-145.14;100.00;70583.66;4995135;28;20451;-82
2022/02/25 10:39:43;;;;;;;14.07;2.70;;;;;;;-145.14;100.00;70583.66;5004562;28;20200;-78
2022/02/25 10:42:19;;;;;;;12.50;3.30;;;;;;;-145.14;100.00;70583.66;5008965;28;20227;-74
2022/02/25 10:44:53;;;;;;;14.10;2.53;;;;;;;-145.14;100.00;70583.66;5000958;28;20188;-77
2022/02/25 10:47:31;;;;;;;12.97;3.40;;;;;;;-145.14;100.00;70583.66;5012198;28;21002;-77
2022/02/25 10:50:09;;;;;;;17.43;3.80;;;;;;;-145.14;100.00;70583.66;5004048;28;20594;-81
2022/02/25 10:52:38;;;;;;;17.20;3.83;;;;;;;-145.14;100.00;70583.66;5010546;28;20966;-79
2022/02/25 10:55:13;;;;;;;19.40;3.60;;;;;;;-145.14;100.00;70583.66;5005267;28;20435;-78
2022/02/25 10:57:39;;;;;;;12.93;2.73;;;;;;;-145.14;100.00;70583.66;5011534;28;20454;-79
2022/02/25 11:00:08;;;;;;;23.77;3.57;;;;;;;-145.14;100.00;70583.66;5012222;28;20430;-78
2022/02/25 11:02:37;;;;;;;15.60;3.10;;;;;;;-145.14;100.00;70583.66;5011878;28;20180;-82